Tiempo atmosférico en la estación meteorológica de Candelaria, Santa Cruz de Tenerife (463 m.)



Fecha
DESCASC
Temp. máxima en grados centígrados (hora)
DESCASC
Temp. mínima en grados centígrados (hora)
DESCASC
Temp. media en grados centígrados
DESCASC
Racha de viento máxima en m/sg (hora)
DESCASC
Velocidad máxima media en intervalos de 10 minutos(hora)
DESCASC
Precipitaciones diarias en mm
DESCASC
Precipitaciones de 00:00 a 06:00 en mm
DESCASC
Precipitaciones de 06:00 a 12:00 en mm
DESCASC
Precipitaciones de 12:00 a 18:00 en mm
DESCASC
Precipitaciones de 18:00 a 24:00 en mm
DESCASC
18-08-2019 31.8 (16:50) 23.6 (04:10) 27.7 4.17 (06:10) 3.33 (06:10) 0 0 0 0 0
17-08-2019 31.1 (13:30) 24.9 (23:00) 28 5.28 (13:20) 3.61 (05:10) 0 0 0 0 0
16-08-2019 32.1 (13:30) 23.5 (03:50) 27.8 5.83 (15:50) 3.61 (01:50) 0 0 0 0 0
15-08-2019 27.3 (11:40) 19.3 (00:00) 23.3 5.83 (13:50) 3.89 (12:50) 0 0 0 0 0
14-08-2019 25.6 (15:20) 18.2 (00:00) 21.9 7.78 (14:30) 4.72 (02:00) 0 0 0 0 0
13-08-2019 28.3 (14:30) 20.7 (00:00) 24.5 10.28 (14:50) 6.39 (14:50) 0 0 0 0 0
12-08-2019 26.4 (11:50) 18.8 (00:00) 22.6 8.33 (11:20) 5.56 (11:10) 0 0 0 0 0
11-08-2019 26.9 (14:50) 19.9 (00:00) 23.4 11.11 (17:00) 6.39 (18:20) 0 0 0 0 0
10-08-2019 25.8 (14:20) 19.3 (00:00) 22.5 7.78 (15:30) 5.28 (15:30) 0 0 0 0 0
09-08-2019 24.6 (11:40) 17.6 (00:00) 21.1 6.67 (14:00) 4.17 (14:40) 0 0 0 0 0
08-08-2019 24.2 (14:20) 16.8 (00:00) 20.5 6.39 (15:30) 3.89 (06:30) 0 0 0 0 0
07-08-2019 24.3 (13:20) 17.3 (00:00) 20.8 8.33 (13:20) 5.28 (13:30) 0 0 0 0 0
06-08-2019 29.4 (17:00) 18.3 (00:00) 23.8 8.89 (11:50) 5.83 (11:50) 0 0 0 0 0
05-08-2019 26.8 (13:10) 18.3 (00:00) 22.5 8.89 (10:40) 5.83 (10:50) 0 0 0 0 0
04-08-2019 27.9 (17:10) 16.8 (00:00) 22.3 10.83 (14:40) 6.11 (19:50) 0 0 0 0 0
03-08-2019 27.4 (15:40) 17.6 (00:00) 22.5 9.72 (13:00) 6.67 (13:00) 0 0 0 0 0
02-08-2019 24.8 (17:50) 15.7 (00:00) 20.2 8.33 (14:10) 5 (14:10) 0 0 0 0 0
01-08-2019 24.9 (16:00) 15.2 (00:00) 20 11.94 (18:00) 6.94 (16:20) 0 0 0 0 0
31-07-2019 26.5 (15:50) 15.5 (00:00) 21 11.39 (13:50) 5.28 (15:40) 0 0 0 0 0
30-07-2019 26.8 (15:20) 18.6 (00:00) 22.7 13.33 (19:40) 6.11 (07:20) 0 0 0 0 0
29-07-2019 28.8 (17:00) 16.4 (00:00) 22.6 10.83 (18:00) 6.94 (18:50) 0 0 0 0 0
28-07-2019 28.5 (13:20) 17.8 (00:00) 23.1 10.56 (14:00) 6.67 (14:00) 0 0 0 0 0
27-07-2019 23.5 (11:50) 18.3 (00:00) 20.9 9.44 (10:30) 6.39 (10:30) 0 0 0 0 0
26-07-2019 26.4 (10:50) 18.7 (00:00) 22.6 10.28 (16:50) 6.11 (16:30) 0 0 0 0 0
25-07-2019 28.2 (13:50) 18.9 (00:00) 23.6 7.22 (19:40) 5.28 (19:30) 0 0 0 0 0
24-07-2019 27.8 (16:50) 18.9 (00:00) 23.3 9.17 (01:40) 6.39 (01:40) 0 0 0 0 0
23-07-2019 27.2 (15:50) 15.6 (00:00) 21.4 8.61 (15:20) 6.11 (16:00) 0 0 0 0 0
22-07-2019 -- (--) -- (--) -- -- (--) -- (--) -- -- -- 0 0
21-07-2019 -- (--) -- (--) -- -- (--) -- (--) -- -- -- 0 --

Gráficas

Temp. máximas Temp. mínimas Temp. medias Precipitaciones Rachas de viento máximas Velocidades máximas media en intervalos de 10 minutos

Datos horarios

Fecha y hora oficial Temperatura (ºC) Velocidad del viento (km/h) Dirección del viento Racha (km/h) Dirección de racha Precipitación (mm) Presión (hPa) Tendencia (hPa) Humedad (%)
2019-08-19 23:00:00 19.7 13 Noroeste 18 Noroeste 0 -- -- 87
2019-08-19 22:00:00 20.2 9 Noroeste 13 Noroeste 0 -- -- 85
2019-08-19 21:00:00 21.1 8 Noroeste 11 Oeste 0 -- -- 81
2019-08-19 20:00:00 23.4 6 Oeste 11 Noroeste 0 -- -- 70
2019-08-19 19:00:00 27.7 4 Sudoeste 15 Oeste 0 -- -- 54
2019-08-19 18:00:00 27.2 5 Sur 13 Sur 0 -- -- 56
2019-08-19 17:00:00 28.3 5 Sudoeste 14 Sur 0 -- -- 49
2019-08-19 16:00:00 28.4 7 Sur 15 Sur 0 -- -- 52
2019-08-19 15:00:00 27.3 8 Sur 14 Sur 0 -- -- 55
2019-08-19 14:00:00 26.9 6 Sur 17 Sur 0 -- -- 59
2019-08-19 13:00:00 26.3 7 Sur 19 Sudeste 0 -- -- 59
2019-08-19 12:00:00 24.4 9 Sur 20 Sudeste 0 -- -- 68
2019-08-19 11:00:00 24.7 7 Sudeste 13 Sudeste 0 -- -- 67
2019-08-19 10:00:00 23.6 12 Noroeste 19 Noroeste 0 -- -- 71
2019-08-19 09:00:00 22.3 13 Noroeste 20 Oeste 0 -- -- 72
2019-08-19 08:00:00 24.1 0 Calma 10 Norte 0 -- -- 24
2019-08-19 07:00:00 23.2 5 Norte 10 Norte 0 -- -- 24
2019-08-19 06:00:00 23.9 2 Nordeste 12 Norte 0 -- -- 24
2019-08-19 05:00:00 25.6 6 Noroeste 12 Norte 0 -- -- 21
2019-08-19 04:00:00 26 8 Norte 14 Norte 0 -- -- 20
2019-08-19 03:00:00 23.7 8 Noroeste 13 Noroeste 0 -- -- 25
2019-08-19 02:00:00 21.2 10 Noroeste 15 Noroeste 0 -- -- 74
2019-08-19 01:00:00 25.2 4 Noroeste 9 Nordeste 0 -- -- 37
2019-08-19 00:00:00 26.5 7 Norte 12 Norte 0 -- -- 22
2019-08-18 23:00:00 26.7 4 Nordeste 10 Nordeste 0 -- -- 25
2019-08-18 22:00:00 27.5 3 Nordeste 9 Norte 0 -- -- 26
2019-08-18 21:00:00 27.3 3 Norte 10 Norte 0 -- -- 43
2019-08-18 20:00:00 27.9 5 Noroeste 9 Sur 0 -- -- 44
2019-08-18 19:00:00 29.8 3 Sudoeste 10 Sur 0 -- -- 39
2019-08-18 18:00:00 29.8 5 Sudoeste 12 Sur 0 -- -- 47
2019-08-18 17:00:00 31.7 8 Sur 15 Sur 0 -- -- 26
2019-08-18 16:00:00 31.3 7 Sur 14 Sudoeste 0 -- -- 29
2019-08-18 15:00:00 29.7 6 Sur 14 Sur 0 -- -- 49
2019-08-18 14:00:00 30.7 7 Sur 13 Sur 0 -- -- 45
2019-08-18 13:00:00 30.6 5 Sur 13 Sur 0 -- -- 28
2019-08-18 12:00:00 31.1 7 Sur 12 Sur 0 -- -- 43
2019-08-18 11:00:00 30.3 6 Sur 12 Sur 0 -- -- 47
2019-08-18 10:00:00 30.9 6 Sur 10 Sudoeste 0 -- -- 39
2019-08-18 09:00:00 29.5 4 Sudeste 10 Nordeste 0 -- -- 17
2019-08-18 08:00:00 25.7 8 Nordeste 13 Nordeste 0 -- -- 18
2019-08-18 07:00:00 25.1 6 Nordeste 15 Nordeste 0 -- -- 21
2019-08-18 06:00:00 25.1 9 Norte 15 Norte 0 -- -- 20
2019-08-18 05:00:00 24.1 9 Norte 13 Nordeste 0 -- -- 25
2019-08-18 04:00:00 23.7 4 Noroeste 8 Este 0 -- -- 29
2019-08-18 03:00:00 24.5 5 Norte 10 Nordeste 0 -- -- 29
2019-08-18 02:00:00 24.6 7 Nordeste 11 Nordeste 0 -- -- 31
2019-08-18 01:00:00 24.7 6 Nordeste 8 Nordeste 0 -- -- 31
2019-08-18 00:00:00 25.4 2 Este 10 Nordeste 0 -- -- 34
2019-08-17 23:00:00 24.9 5 Noroeste 6 Noroeste 0 -- -- 41
2019-08-17 22:00:00 25.7 2 Nordeste 9 Noroeste 0 -- -- 39
2019-08-17 21:00:00 26.2 3 Norte 9 Noroeste 0 -- -- 43
2019-08-17 20:00:00 27 5 Oeste 13 Sudoeste 0 -- -- 41
2019-08-17 19:00:00 28.3 8 Oeste 11 Sudoeste 0 -- -- 41
2019-08-17 18:00:00 29.5 8 Sudoeste 14 Sudoeste 0 -- -- 39
2019-08-17 17:00:00 29.9 8 Sudoeste 16 Sur 0 -- -- 36
2019-08-17 16:00:00 29.9 9 Sur 17 Sur 0 -- -- 35
2019-08-17 15:00:00 30 9 Sur 16 Sur 0 -- -- 36
2019-08-17 14:00:00 30.8 8 Sur 19 Sur 0 -- -- 33
2019-08-17 13:00:00 30.8 10 Sur 17 Sur 0 -- -- 34
2019-08-17 12:00:00 29.8 8 Sur 13 Sur 0 -- -- 43
2019-08-17 11:00:00 29.7 7 Sudoeste 13 Sudoeste 0 -- -- 43
2019-08-17 10:00:00 30.2 5 Sudoeste 13 Sur 0 -- -- 41
2019-08-17 09:00:00 29.8 4 Sudeste 12 Sudeste 0 -- -- 26
2019-08-17 08:00:00 25.8 2 Oeste 14 Sudeste 0 -- -- 26
2019-08-17 07:00:00 25.8 6 Nordeste 14 Nordeste 0 -- -- 24
2019-08-17 06:00:00 26.3 6 Nordeste 16 Norte 0 -- -- 28
2019-08-17 05:00:00 25.1 9 Norte 14 Norte 0 -- -- 30
2019-08-17 04:00:00 25.3 7 Norte 13 Nordeste 0 -- -- 24
2019-08-17 03:00:00 25.5 7 Norte 10 Norte 0 -- -- 23
2019-08-17 02:00:00 26.8 8 Nordeste 16 Nordeste 0 -- -- 22
2019-08-17 01:00:00 27.1 5 Este 13 Nordeste 0 -- -- 23
2019-08-17 00:00:00 26.7 4 Noroeste 10 Nordeste 0 -- -- 32
2019-08-16 23:00:00 25.9 4 Nordeste 9 Nordeste 0 -- -- 37
2019-08-16 22:00:00 25.1 8 Noroeste 14 Oeste 0 -- -- 52
2019-08-16 21:00:00 27.4 2 Noroeste 8 Sur 0 -- -- 44
2019-08-16 20:00:00 27.4 5 Noroeste 12 Noroeste 0 -- -- 44
2019-08-16 19:00:00 29.1 4 Sudoeste 9 Sudoeste 0 -- -- 42
2019-08-16 18:00:00 29.1 6 Sur 14 Sur 0 -- -- 42
2019-08-16 17:00:00 29.2 9 Sur 17 Sur 0 -- -- 37
2019-08-16 16:00:00 30.4 12 Sur 21 Sur 0 -- -- 32
2019-08-16 15:00:00 30.8 9 Sur 18 Sur 0 -- -- 32
2019-08-16 14:00:00 31.1 9 Sur 18 Sur 0 -- -- 29
2019-08-16 13:00:00 31.8 10 Sur 16 Sur 0 -- -- 27
2019-08-16 12:00:00 31.5 8 Sur 19 Sur 0 -- -- 28
2019-08-16 11:00:00 30.6 6 Sur 13 Sur 0 -- -- 28
2019-08-16 10:00:00 28.2 4 Sur 13 Sudeste 0 -- -- 30
2019-08-16 09:00:00 27.2 5 Norte 17 Sudeste 0 -- -- 24
2019-08-16 08:00:00 24.5 4 Este 12 Nordeste 0 -- -- 23
2019-08-16 07:00:00 24.4 4 Norte 12 Nordeste 0 -- -- 20
2019-08-16 06:00:00 25.2 4 Este 15 Norte 0 -- -- 19
2019-08-16 05:00:00 24 3 Nordeste 11 Norte 0 -- -- 22
2019-08-16 04:00:00 23.6 6 Norte 10 Nordeste 0 -- -- 24
2019-08-16 03:00:00 24.6 4 Nordeste 13 Nordeste 0 -- -- 23
2019-08-16 02:00:00 25.2 12 Norte 17 Nordeste 0 -- -- 21
2019-08-16 01:00:00 23.7 4 Este 12 Norte 0 -- -- 25
2019-08-16 00:00:00 23.7 3 Nordeste 12 Norte 0 -- -- 29
2019-08-15 23:00:00 23.1 6 Nordeste 10 Nordeste 0 -- -- 34
2019-08-15 22:00:00 23.2 5 Norte 9 Norte 0 -- -- 37
2019-08-15 21:00:00 23.4 2 Este 9 Noroeste 0 -- -- 67
2019-08-15 20:00:00 23.7 7 Noroeste 15 Oeste 0 -- -- 68
2019-08-15 19:00:00 24.5 7 Oeste 17 Oeste 0 -- -- 66
2019-08-15 18:00:00 25.5 7 Sudoeste 13 Sudoeste 0 -- -- 63
2019-08-15 17:00:00 25.4 6 Sur 15 Sur 0 -- -- 63
2019-08-15 16:00:00 25.1 8 Sur 18 Sur 0 -- -- 64
2019-08-15 15:00:00 24.7 12 Sur 20 Sur 0 -- -- 65
2019-08-15 14:00:00 25.2 12 Sur 21 Sur 0 -- -- 60
2019-08-15 13:00:00 26 13 Sur 19 Sur 0 -- -- 53
2019-08-15 12:00:00 26.4 11 Sur 18 Sur 0 -- -- 42
2019-08-15 11:00:00 26.9 9 Sudoeste 14 Oeste 0 -- -- 36
2019-08-15 10:00:00 26.3 8 Oeste 12 Oeste 0 -- -- 30
2019-08-15 09:00:00 25.1 0 Calma 6 Sudoeste 0 -- -- 17
2019-08-15 08:00:00 20.4 6 Nordeste 12 Nordeste 0 -- -- 21
2019-08-15 07:00:00 20 4 Nordeste 11 Norte 0 -- -- 21
2019-08-15 06:00:00 20.6 2 Nordeste 13 Nordeste 0 -- -- 20
2019-08-15 05:00:00 20 6 Nordeste 9 Nordeste 0 -- -- 21
2019-08-15 04:00:00 19.7 5 Nordeste 12 Nordeste 0 -- -- 19
2019-08-15 03:00:00 19.7 6 Nordeste 11 Norte 0 -- -- 20
2019-08-15 02:00:00 20.9 12 Nordeste 14 Norte 0 -- -- 18
2019-08-15 01:00:00 20.5 3 Norte 9 Este 0 -- -- 23
2019-08-15 00:00:00 21.4 6 Nordeste 10 Nordeste 0 -- -- 16
2019-08-14 23:00:00 20.8 5 Norte 11 Norte 0 -- -- 20
2019-08-14 22:00:00 20.5 3 Norte 8 Norte 0 -- -- 35
2019-08-14 21:00:00 22 4 Sudeste 9 Noroeste 0 -- -- 54
2019-08-14 20:00:00 22.4 3 Oeste 10 Sur 0 -- -- 57
2019-08-14 19:00:00 23.1 7 Sur 17 Sur 0 -- -- 53
2019-08-14 18:00:00 24.2 13 Sudeste 26 Sudeste 0 -- -- 50
2019-08-14 17:00:00 24.7 14 Sudeste 24 Sur 0 -- -- 50
2019-08-14 16:00:00 24.9 15 Sur 25 Sur 0 -- -- 51
2019-08-14 15:00:00 25.1 14 Sur 28 Sur 0 -- -- 49
2019-08-14 14:00:00 25.3 15 Sur 26 Sur 0 -- -- 52
2019-08-14 13:00:00 24.4 13 Sur 22 Oeste 0 -- -- 57
2019-08-14 12:00:00 25 14 Oeste 22 Oeste 0 -- -- 51
2019-08-14 11:00:00 25.2 12 Oeste 21 Oeste 0 -- -- 47
2019-08-14 10:00:00 25 9 Oeste 15 Sudoeste 0 -- -- 38
2019-08-14 09:00:00 24.4 5 Sudoeste 10 Nordeste 0 -- -- 19
2019-08-14 08:00:00 21.1 4 Nordeste 17 Nordeste 0 -- -- 17
2019-08-14 07:00:00 19.4 13 Nordeste 17 Norte 0 -- -- 19
2019-08-14 06:00:00 19.6 15 Nordeste 19 Nordeste 0 -- -- 22
2019-08-14 05:00:00 19.2 13 Norte 15 Norte 0 -- -- 25
2019-08-14 04:00:00 18.5 6 Norte 12 Norte 0 -- -- 31
2019-08-14 03:00:00 19.3 4 Nordeste 22 Noroeste 0 -- -- 37
2019-08-14 02:00:00 19.9 17 Noroeste 26 Noroeste 0 -- -- 46
2019-08-14 01:00:00 20 7 Norte 10 Norte 0 -- -- 33
2019-08-14 00:00:00 20.8 4 Este 16 Noroeste 0 -- -- 36
2019-08-13 23:00:00 21.1 11 Noroeste 18 Noroeste 0 -- -- 42
2019-08-13 22:00:00 21.8 13 Noroeste 26 Noroeste 0 -- -- 45
2019-08-13 21:00:00 22.2 19 Noroeste 28 Noroeste 0 -- -- 48
2019-08-13 20:00:00 23.1 19 Noroeste 29 Noroeste 0 -- -- 48
2019-08-13 19:00:00 25.8 14 Noroeste 26 Oeste 0 -- -- 42
2019-08-13 18:00:00 27 9 Oeste 32 Noroeste 0 -- -- 41
2019-08-13 17:00:00 27.6 22 Noroeste 33 Noroeste 0 -- -- 40
2019-08-13 16:00:00 28.1 18 Noroeste 34 Noroeste 0 -- -- 36
2019-08-13 15:00:00 27.3 22 Noroeste 37 Noroeste 0 -- -- 39
2019-08-13 14:00:00 27 18 Noroeste 31 Noroeste 0 -- -- 39
2019-08-13 13:00:00 26.8 13 Oeste 31 Oeste 0 -- -- 41
2019-08-13 12:00:00 25.9 14 Oeste 26 Sudoeste 0 -- -- 42
2019-08-13 11:00:00 25.5 16 Noroeste 24 Noroeste 0 -- -- 40
2019-08-13 10:00:00 24.2 18 Noroeste 26 Oeste 0 -- -- 42
2019-08-13 09:00:00 23.3 14 Noroeste 21 Noroeste 0 -- -- 40
2019-08-13 08:00:00 21.4 4 Noroeste 13 Noroeste 0 -- -- 28
2019-08-13 07:00:00 21 9 Noroeste 23 Noroeste 0 -- -- 28
2019-08-13 06:00:00 22.1 16 Noroeste 23 Noroeste 0 -- -- 31
2019-08-13 05:00:00 22.2 12 Norte 22 Noroeste 0 -- -- 25
2019-08-13 04:00:00 23.1 11 Noroeste 17 Noroeste 0 -- -- 22
2019-08-13 03:00:00 22.8 12 Norte 19 Noroeste 0 -- -- 21
2019-08-13 02:00:00 23.1 14 Norte 19 Noroeste 0 -- -- 23
2019-08-13 01:00:00 22.2 10 Norte 16 Norte 0 -- -- 28
2019-08-13 00:00:00 22.3 7 Noroeste 26 Norte 0 -- -- 30
2019-08-12 23:00:00 22.9 15 Noroeste 28 Noroeste 0 -- -- 27
2019-08-12 22:00:00 23.4 15 Noroeste 26 Noroeste 0 -- -- 26
2019-08-12 21:00:00 23.6 5 Nordeste 22 Noroeste 0 -- -- 30
2019-08-12 20:00:00 24.4 15 Noroeste 24 Noroeste 0 -- -- 33
2019-08-12 19:00:00 26.2 14 Noroeste 22 Noroeste 0 -- -- 35
2019-08-12 18:00:00 26.1 9 Oeste 18 Oeste 0 -- -- 38
2019-08-12 17:00:00 25.2 10 Sur 24 Sudeste 0 -- -- 47
2019-08-12 16:00:00 25.7 15 Sur 25 Sur 0 -- -- 50
2019-08-12 15:00:00 24.6 18 Sur 28 Sur 0 -- -- 57
2019-08-12 14:00:00 24.6 17 Sur 29 Sur 0 -- -- 60
2019-08-12 13:00:00 24.9 13 Sur 25 Sur 0 -- -- 55
2019-08-12 12:00:00 26 14 Sur 30 Noroeste 0 -- -- 48
2019-08-12 11:00:00 24.4 19 Noroeste 27 Oeste 0 -- -- 57
2019-08-12 10:00:00 23.9 10 Oeste 17 Sudoeste 0 -- -- 57
2019-08-12 09:00:00 23.3 4 Oeste 18 Este 0 -- -- 53
2019-08-12 08:00:00 20.8 6 Este 15 Este 0 -- -- 50
2019-08-12 07:00:00 18.8 5 Norte 10 Nordeste 0 -- -- 52
2019-08-12 06:00:00 19.3 6 Nordeste 11 Sudeste 0 -- -- 54
2019-08-12 05:00:00 19.7 5 Este 10 Sudeste 0 -- -- 54
2019-08-12 04:00:00 20.2 3 Este 10 Nordeste 0 -- -- 52
2019-08-12 03:00:00 21.6 4 Sur 16 Nordeste 0 -- -- 43
2019-08-12 02:00:00 20.9 4 Noroeste 14 Norte 0 -- -- 39
2019-08-12 01:00:00 21.3 5 Norte 13 Noroeste 0 -- -- 41
2019-08-12 00:00:00 20.9 4 Oeste 21 Noroeste 0 -- -- 50
2019-08-11 23:00:00 21.7 10 Noroeste 16 Noroeste 0 -- -- 45
2019-08-11 22:00:00 22.3 8 Oeste 18 Noroeste 0 -- -- 47
2019-08-11 21:00:00 22.3 14 Noroeste 27 Noroeste 0 -- -- 49
2019-08-11 20:00:00 22.7 21 Noroeste 30 Noroeste 0 -- -- 55
2019-08-11 19:00:00 24.5 16 Noroeste 36 Noroeste 0 -- -- 55
2019-08-11 18:00:00 25.5 13 Oeste 35 Noroeste 0 -- -- 56
2019-08-11 17:00:00 25.5 21 Noroeste 40 Oeste 0 -- -- 59
2019-08-11 16:00:00 26.4 17 Oeste 35 Noroeste 0 -- -- 59
2019-08-11 15:00:00 26.8 13 Oeste 30 Oeste 0 -- -- 59
2019-08-11 14:00:00 25.9 16 Sudoeste 30 Oeste 0 -- -- 62
2019-08-11 13:00:00 25.4 11 Sudoeste 32 Oeste 0 -- -- 65
2019-08-11 12:00:00 25 17 Noroeste 28 Noroeste 0 -- -- 69
2019-08-11 11:00:00 23.6 10 Noroeste 28 Noroeste 0 -- -- 74
2019-08-11 10:00:00 22.4 17 Noroeste 32 Noroeste 0 -- -- 80
2019-08-11 09:00:00 22.4 16 Noroeste 28 Noroeste 0 -- -- 77
2019-08-11 08:00:00 20.4 11 Norte 23 Noroeste 0 -- -- 80
2019-08-11 07:00:00 19.9 14 Noroeste 22 Noroeste 0 -- -- 80
2019-08-11 06:00:00 20.3 15 Norte 27 Noroeste 0 -- -- 77
2019-08-11 05:00:00 20.8 15 Noroeste 30 Noroeste 0 -- -- 78
2019-08-11 04:00:00 21.3 17 Noroeste 24 Noroeste 0 -- -- 67
2019-08-11 03:00:00 21.6 17 Noroeste 24 Noroeste 0 -- -- 66
2019-08-11 02:00:00 21.6 17 Noroeste 23 Noroeste 0 -- -- 66
2019-08-11 01:00:00 21.1 6 Noroeste 12 Norte 0 -- -- 64
2019-08-11 00:00:00 21 2 Nordeste 14 Noroeste 0 -- -- 68
2019-08-10 23:00:00 21.3 11 Noroeste 18 Noroeste 0 -- -- 76
2019-08-10 22:00:00 21.8 10 Noroeste 14 Noroeste 0 -- -- 77
2019-08-10 21:00:00 22.4 8 Noroeste 16 Noroeste 0 -- -- 76
2019-08-10 20:00:00 22.9 10 Noroeste 16 Noroeste 0 -- -- 75
2019-08-10 19:00:00 22.6 6 Sur 21 Sur 0 -- -- 77
2019-08-10 18:00:00 23.2 10 Sur 21 Sur 0 -- -- 77
2019-08-10 17:00:00 24.1 13 Sur 25 Sur 0 -- -- 72
2019-08-10 16:00:00 24.6 16 Sur 28 Sur 0 -- -- 71
2019-08-10 15:00:00 25.6 15 Sudeste 24 Sur 0 -- -- 64
2019-08-10 14:00:00 25.6 14 Sur 27 Sudoeste 0 -- -- 63
2019-08-10 13:00:00 25.3 12 Sur 27 Sur 0 -- -- 66
2019-08-10 12:00:00 25.4 11 Sur 17 Sur 0 -- -- 65
2019-08-10 11:00:00 25.2 10 Sudoeste 20 Sudoeste 0 -- -- 59
2019-08-10 10:00:00 23.7 11 Oeste 20 Oeste 0 -- -- 68
2019-08-10 09:00:00 22.4 10 Oeste 17 Oeste 0 -- -- 69
2019-08-10 08:00:00 20.8 7 Noroeste 19 Noroeste 0 -- -- 57
2019-08-10 07:00:00 20.1 10 Noroeste 14 Noroeste 0 -- -- 64
2019-08-10 06:00:00 20.2 10 Noroeste 18 Noroeste 0 -- -- 62
2019-08-10 05:00:00 20.3 14 Norte 21 Noroeste 0 -- -- 58
2019-08-10 04:00:00 19.7 10 Norte 13 Norte 0 -- -- 69
2019-08-10 03:00:00 19.8 6 Noroeste 11 Noroeste -- -- -- 73
2019-08-10 02:00:00 20.2 5 Este 12 Norte 0 -- -- 77
2019-08-10 01:00:00 20.4 4 Noroeste 7 Noroeste 0 -- -- 75
2019-08-10 00:00:00 20.7 0 Calma 5 Noroeste 0 -- -- 72
2019-08-09 23:00:00 21.3 3 Norte 6 Este 0 -- -- 77
2019-08-09 22:00:00 21.2 3 Sudeste 12 Noroeste 0 -- -- 73
2019-08-09 21:00:00 20.7 7 Noroeste 13 Noroeste 0 -- -- 84
2019-08-09 20:00:00 21 3 Sudoeste 12 Sudeste 0 -- -- 82
2019-08-09 19:00:00 21.6 8 Sur 17 Sur 0 -- -- 81
2019-08-09 18:00:00 22.7 8 Sur 18 Sudeste 0 -- -- 77
2019-08-09 17:00:00 22.7 9 Sur 22 Sur 0 -- -- 76
2019-08-09 16:00:00 23.3 13 Sur 21 Sudeste 0 -- -- 74
2019-08-09 15:00:00 22.7 14 Sur 24 Sudeste 0 -- -- 76
2019-08-09 14:00:00 23.3 12 Sudeste 24 Sudeste 0 -- -- 74
2019-08-09 13:00:00 23.3 12 Sur 22 Sudoeste 0 -- -- 74
2019-08-09 12:00:00 23.7 15 Oeste 23 Oeste 0 -- -- 69
2019-08-09 11:00:00 24.2 10 Sur 17 Sur 0 -- -- 61
2019-08-09 10:00:00 22.6 7 Oeste 16 Noroeste 0 -- -- 76
2019-08-09 09:00:00 19.6 8 Noroeste 17 Oeste 0 -- -- 85
2019-08-09 08:00:00 18.1 0 Calma 11 Noroeste 0 -- -- 84
2019-08-09 07:00:00 18 12 Noroeste 16 Noroeste 0 -- -- 92
2019-08-09 06:00:00 18.3 7 Noroeste 11 Noroeste 0 -- -- 92
2019-08-09 05:00:00 18.4 6 Noroeste 13 Noroeste 0 -- -- 92
2019-08-09 04:00:00 18.5 8 Noroeste 13 Noroeste 0 -- -- 92
2019-08-09 03:00:00 18.7 5 Noroeste 11 Noroeste 0 -- -- 91
2019-08-09 02:00:00 19 9 Noroeste 14 Noroeste 0 -- -- 90
2019-08-09 01:00:00 19.2 8 Noroeste 18 Noroeste 0 -- -- 91
2019-08-09 00:00:00 19.1 9 Noroeste 14 Noroeste 0 -- -- 92
2019-08-08 23:00:00 19.3 8 Noroeste 12 Noroeste 0 -- -- 90
2019-08-08 22:00:00 19.6 5 Oeste 9 Oeste 0 -- -- 89
2019-08-08 21:00:00 19.7 3 Sur 10 Sur 0 -- -- 89
2019-08-08 20:00:00 20 5 Sudeste 13 Sur 0 -- -- 85
2019-08-08 19:00:00 21 8 Sudeste 17 Sur 0 -- -- 82
2019-08-08 18:00:00 21.9 10 Sur 18 Sudeste 0 -- -- 78
2019-08-08 17:00:00 22.7 13 Sur 20 Sur 0 -- -- 74
2019-08-08 16:00:00 23.5 13 Sudeste 23 Sur 0 -- -- 71
2019-08-08 15:00:00 23.1 10 Sur 21 Sur 0 -- -- 72
2019-08-08 14:00:00 23.7 12 Sur 21 Sudeste 0 -- -- 69
2019-08-08 13:00:00 23.7 10 Sudeste 22 Sudeste 0 -- -- 69
2019-08-08 12:00:00 23.1 11 Sur 22 Sur 0 -- -- 71
2019-08-08 11:00:00 22.4 8 Sur 15 Sur 0 -- -- 72
2019-08-08 10:00:00 21.7 4 Sur 12 Sur 0 -- -- 72
2019-08-08 09:00:00 20 2 Sur 8 Sur 0 -- -- 78
2019-08-08 08:00:00 17.4 2 Este 10 Sudeste 0 -- -- 75
2019-08-08 07:00:00 18.7 5 Nordeste 18 Norte 0 -- -- 48
2019-08-08 06:00:00 17.6 10 Noroeste 14 Noroeste 0 -- -- 81
2019-08-08 05:00:00 18 2 Este 13 Norte 0 -- -- 68
2019-08-08 04:00:00 17.6 9 Nordeste 13 Nordeste 0 -- -- 48
2019-08-08 03:00:00 17.3 6 Norte 10 Noroeste 0 -- -- 77
2019-08-08 02:00:00 17.6 0 Calma 9 Nordeste 0 -- -- 84
2019-08-08 01:00:00 18 3 Nordeste 12 Norte 0 -- -- 82
2019-08-08 00:00:00 18.7 9 Noroeste 14 Noroeste 0 -- -- 88
2019-08-07 23:00:00 19 10 Noroeste 14 Noroeste 0 -- -- 86
2019-08-07 22:00:00 19.4 9 Noroeste 15 Noroeste 0 -- -- 86
2019-08-07 21:00:00 20 9 Noroeste 13 Noroeste 0 -- -- 83
2019-08-07 20:00:00 20.5 3 Sudoeste 17 Sur 0 -- -- 80
2019-08-07 19:00:00 21.3 12 Sur 23 Sudeste 0 -- -- 75
2019-08-07 18:00:00 22.3 16 Sur 26 Sur 0 -- -- 71
2019-08-07 17:00:00 23 12 Sur 27 Sur 0 -- -- 68
2019-08-07 16:00:00 23.4 13 Sudeste 28 Sur 0 -- -- 68
2019-08-07 15:00:00 23.4 15 Sur 29 Sur 0 -- -- 68
2019-08-07 14:00:00 23.6 19 Sudeste 30 Sur 0 -- -- 67
2019-08-07 13:00:00 23.7 15 Sur 23 Sur 0 -- -- 64
2019-08-07 12:00:00 23.9 10 Sur 20 Oeste 0 -- -- 63
2019-08-07 11:00:00 23.7 12 Oeste 18 Oeste 0 -- -- 63
2019-08-07 10:00:00 24.1 8 Sudoeste 12 Sudoeste 0 -- -- 51
2019-08-07 09:00:00 22 7 Noroeste 17 Norte 0 -- -- 53
2019-08-07 08:00:00 19.4 13 Noroeste 19 Norte 0 -- -- 42
2019-08-07 07:00:00 18.7 11 Norte 16 Noroeste 0 -- -- 38
2019-08-07 06:00:00 17.8 8 Nordeste 17 Norte 0 -- -- 33
2019-08-07 05:00:00 18.2 6 Nordeste 18 Noroeste 0 -- -- 44
2019-08-07 04:00:00 18.7 12 Noroeste 22 Norte 0 -- -- 53
2019-08-07 03:00:00 19.1 14 Norte 23 Noroeste 0 -- -- 63
2019-08-07 02:00:00 19.5 13 Norte 17 Norte 0 -- -- 56
2019-08-07 01:00:00 19.7 12 Noroeste 20 Noroeste 0 -- -- 62
2019-08-07 00:00:00 19.8 6 Norte 19 Norte 0 -- -- 51
2019-08-06 23:00:00 20.6 14 Noroeste 19 Noroeste 0 -- -- 59
2019-08-06 22:00:00 21 8 Noroeste 23 Noroeste 0 -- -- 60
2019-08-06 21:00:00 21.9 12 Noroeste 23 Noroeste 0 -- -- 58
2019-08-06 20:00:00 23.6 16 Noroeste 27 Noroeste 0 -- -- 53
2019-08-06 19:00:00 26.5 13 Oeste 27 Sudoeste 0 -- -- 42
2019-08-06 18:00:00 28.8 14 Oeste 25 Oeste 0 -- -- 36
2019-08-06 17:00:00 29.4 12 Oeste 26 Oeste 0 -- -- 37
2019-08-06 16:00:00 28.6 13 Oeste 23 Sudoeste 0 -- -- 45
2019-08-06 15:00:00 27.6 13 Oeste 26 Oeste 0 -- -- 48
2019-08-06 14:00:00 26.8 18 Noroeste 28 Oeste 0 -- -- 52
2019-08-06 13:00:00 26.7 13 Oeste 29 Oeste 0 -- -- 51
2019-08-06 12:00:00 24.6 18 Noroeste 32 Noroeste 0 -- -- 60
2019-08-06 11:00:00 24.3 14 Oeste 24 Oeste 0 -- -- 58
2019-08-06 10:00:00 22.7 14 Oeste 23 Noroeste 0 -- -- 61
2019-08-06 09:00:00 20.8 13 Noroeste 23 Noroeste 0 -- -- 69
2019-08-06 08:00:00 18.9 12 Noroeste 27 Noroeste 0 -- -- 72
2019-08-06 07:00:00 18.4 14 Norte 21 Noroeste 0 -- -- 74
2019-08-06 06:00:00 18.8 13 Noroeste 18 Noroeste 0 -- -- 71
2019-08-06 05:00:00 18.8 12 Noroeste 18 Noroeste 0 -- -- 68
2019-08-06 04:00:00 19.3 12 Noroeste 24 Noroeste 0 -- -- 70
2019-08-06 03:00:00 20.3 16 Noroeste 24 Noroeste 0 -- -- 63
2019-08-06 02:00:00 20.7 5 Este 12 Nordeste 0 -- -- 48
2019-08-06 01:00:00 20.8 4 Nordeste 19 Noroeste 0 -- -- 49
2019-08-06 00:00:00 20.8 13 Noroeste 20 Noroeste 0 -- -- 57
2019-08-05 23:00:00 21.1 5 Oeste 15 Norte 0 -- -- 54
2019-08-05 22:00:00 21.6 12 Noroeste 19 Noroeste 0 -- -- 58
2019-08-05 21:00:00 22.4 14 Noroeste 21 Noroeste 0 -- -- 58
2019-08-05 20:00:00 23.7 9 Noroeste 13 Noroeste 0 -- -- 56
2019-08-05 19:00:00 24 6 Sur 19 Sur 0 -- -- 55
2019-08-05 18:00:00 25.2 8 Sudoeste 20 Sur 0 -- -- 52
2019-08-05 17:00:00 24 13 Sur 23 Sudeste 0 -- -- 61
2019-08-05 16:00:00 24.1 14 Sur 31 Sur 0 -- -- 64
2019-08-05 15:00:00 24.6 15 Sur 30 Sur 0 -- -- 59
2019-08-05 14:00:00 25.8 15 Sur 28 Sur 0 -- -- 50
2019-08-05 13:00:00 26.5 11 Sudoeste 24 Sudeste 0 -- -- 43
2019-08-05 12:00:00 26.5 14 Oeste 25 Oeste 0 -- -- 47
2019-08-05 11:00:00 24.5 18 Noroeste 32 Noroeste 0 -- -- 57
2019-08-05 10:00:00 23.4 18 Noroeste 26 Noroeste 0 -- -- 60
2019-08-05 09:00:00 22.8 6 Oeste 21 Norte 0 -- -- 53
2019-08-05 08:00:00 19.4 11 Noroeste 18 Noroeste 0 -- -- 55
2019-08-05 07:00:00 19.5 15 Noroeste 26 Noroeste 0 -- -- 54
2019-08-05 06:00:00 18.9 14 Noroeste 24 Noroeste 0 -- -- 55
2019-08-05 05:00:00 18.6 12 Norte 20 Noroeste 0 -- -- 56
2019-08-05 04:00:00 18.5 13 Norte 20 Noroeste 0 -- -- 68
2019-08-05 03:00:00 18.5 11 Noroeste 18 Noroeste 0 -- -- 70
2019-08-05 02:00:00 18.9 11 Norte 17 Norte 0 -- -- 65
2019-08-05 01:00:00 19.5 12 Norte 22 Noroeste 0 -- -- 63
2019-08-05 00:00:00 19.7 12 Noroeste 18 Noroeste 0 -- -- 57
2019-08-04 23:00:00 19.5 6 Norte 24 Noroeste 0 -- -- 68
2019-08-04 22:00:00 20.2 13 Noroeste 23 Noroeste 0 -- -- 68
2019-08-04 21:00:00 20.9 18 Noroeste 30 Noroeste 0 -- -- 68
2019-08-04 20:00:00 22 21 Noroeste 33 Noroeste 0 -- -- 65
2019-08-04 19:00:00 24.4 15 Sur 28 Sur 0 -- -- 53
2019-08-04 18:00:00 27.4 10 Sudoeste 32 Sudoeste 0 -- -- 39
2019-08-04 17:00:00 27.7 11 Oeste 32 Sur 0 -- -- 41
2019-08-04 16:00:00 26.4 15 Sudoeste 30 Sur 0 -- -- 47
2019-08-04 15:00:00 26.5 16 Oeste 39 Sudoeste 0 -- -- 49
2019-08-04 14:00:00 25.5 18 Noroeste 31 Sur 0 -- -- 52
2019-08-04 13:00:00 26.1 14 Sudoeste 36 Sudoeste 0 -- -- 43
2019-08-04 12:00:00 26.1 13 Oeste 27 Oeste 0 -- -- 44
2019-08-04 11:00:00 24.3 15 Oeste 24 Oeste 0 -- -- 45
2019-08-04 10:00:00 23.1 12 Oeste 17 Noroeste 0 -- -- 46
2019-08-04 09:00:00 21.1 10 Noroeste 20 Noroeste 0 -- -- 57
2019-08-04 08:00:00 18.6 10 Noroeste 14 Norte 0 -- -- 48
2019-08-04 07:00:00 18 9 Norte 19 Noroeste 0 -- -- 46
2019-08-04 06:00:00 18.1 12 Noroeste 18 Noroeste 0 -- -- 52
2019-08-04 05:00:00 17.6 9 Norte 12 Noroeste 0 -- -- 47
2019-08-04 04:00:00 17.5 3 Norte 14 Norte 0 -- -- 46
2019-08-04 03:00:00 18.1 8 Nordeste 23 Noroeste 0 -- -- 62
2019-08-04 02:00:00 18.6 11 Norte 18 Norte 0 -- -- 62
2019-08-04 01:00:00 19 8 Norte 17 Norte 0 -- -- 66
2019-08-04 00:00:00 19.7 13 Noroeste 18 Noroeste 0 -- -- 63
2019-08-03 23:00:00 19.9 3 Noroeste 10 Nordeste 0 -- -- 67
2019-08-03 22:00:00 20.5 8 Nordeste 11 Nordeste 0 -- -- 66
2019-08-03 21:00:00 21.2 6 Oeste 13 Oeste 0 -- -- 65
2019-08-03 20:00:00 22.8 9 Oeste 20 Sudoeste 0 -- -- 60
2019-08-03 19:00:00 24.4 12 Oeste 24 Oeste 0 -- -- 56
2019-08-03 18:00:00 25.1 19 Oeste 29 Oeste 0 -- -- 55
2019-08-03 17:00:00 27 17 Oeste 27 Oeste 0 -- -- 47
2019-08-03 16:00:00 27.4 17 Oeste 31 Noroeste 0 -- -- 46
2019-08-03 15:00:00 26.7 14 Oeste 26 Oeste 0 -- -- 49
2019-08-03 14:00:00 25.2 17 Oeste 31 Oeste 0 -- -- 56
2019-08-03 13:00:00 24.5 24 Noroeste 35 Oeste 0 -- -- 58
2019-08-03 12:00:00 24.7 15 Noroeste 30 Oeste 0 -- -- 54
2019-08-03 11:00:00 23.7 14 Oeste 22 Oeste 0 -- -- 57
2019-08-03 10:00:00 22.1 14 Oeste 21 Oeste 0 -- -- 64
2019-08-03 09:00:00 21 6 Oeste 14 Noroeste 0 -- -- 64
2019-08-03 08:00:00 19 11 Noroeste 17 Noroeste 0 -- -- 62
2019-08-03 07:00:00 17.9 10 Norte 21 Noroeste 0 -- -- 62
2019-08-03 06:00:00 18 13 Noroeste 21 Noroeste 0 -- -- 66
2019-08-03 05:00:00 18.1 11 Noroeste 18 Noroeste 0 -- -- 66
2019-08-03 04:00:00 18.1 10 Norte 18 Noroeste 0 -- -- 64
2019-08-03 03:00:00 18.7 11 Noroeste 21 Noroeste 0 -- -- 65
2019-08-03 02:00:00 18.4 5 Nordeste 22 Noroeste 0 -- -- 57
2019-08-03 01:00:00 18.8 4 Norte 19 Noroeste 0 -- -- 59
2019-08-03 00:00:00 19.8 15 Noroeste 22 Noroeste 0 -- -- 61
2019-08-02 23:00:00 20.2 13 Noroeste 18 Noroeste 0 -- -- 60
2019-08-02 22:00:00 20.5 6 Norte 12 Norte 0 -- -- 61
2019-08-02 21:00:00 21.3 10 Noroeste 19 Noroeste 0 -- -- 60
2019-08-02 20:00:00 22.6 14 Noroeste 23 Noroeste 0 -- -- 57
2019-08-02 19:00:00 24 16 Noroeste 26 Oeste 0 -- -- 58
2019-08-02 18:00:00 24.7 16 Oeste 30 Oeste 0 -- -- 58
2019-08-02 17:00:00 23.5 10 Sudoeste 23 Sudoeste 0 -- -- 61
2019-08-02 16:00:00 22.7 12 Sur 29 Sur 0 -- -- 64
2019-08-02 15:00:00 23.5 16 Sur 30 Sur 0 -- -- 61
2019-08-02 14:00:00 22.8 15 Sudoeste 27 Sur 0 -- -- 64
2019-08-02 13:00:00 22.8 16 Sudoeste 28 Sudoeste 0 -- -- 64
2019-08-02 12:00:00 22.6 4 Sur 25 Sur 0 -- -- 66
2019-08-02 11:00:00 22.9 13 Noroeste 22 Noroeste 0 -- -- 59
2019-08-02 10:00:00 21.4 15 Noroeste 26 Noroeste 0 -- -- 62
2019-08-02 09:00:00 20.1 8 Oeste 17 Noroeste 0 -- -- 66
2019-08-02 08:00:00 17.7 13 Norte 21 Norte 0 -- -- 68
2019-08-02 07:00:00 16.4 10 Norte 15 Noroeste 0 -- -- 62
2019-08-02 06:00:00 16.3 8 Norte 15 Noroeste 0 -- -- 58
2019-08-02 05:00:00 16.5 5 Nordeste 19 Noroeste 0 -- -- 65
2019-08-02 04:00:00 17.8 14 Noroeste 22 Noroeste 0 -- -- 68
2019-08-02 03:00:00 17.3 3 Nordeste 11 Norte 0 -- -- 48
2019-08-02 02:00:00 17.3 4 Norte 18 Norte 0 -- -- 50
2019-08-02 01:00:00 18.3 9 Noroeste 14 Noroeste 0 -- -- 55
2019-08-02 00:00:00 17.9 3 Este 10 Noroeste 0 -- -- 68
2019-08-01 23:00:00 18.5 8 Noroeste 10 Noroeste 0 -- -- 78
2019-08-01 22:00:00 19.2 0 Calma 12 Noroeste 0 -- -- 75
2019-08-01 21:00:00 20.3 8 Noroeste 17 Oeste 0 -- -- 74
2019-08-01 20:00:00 22 12 Oeste 18 Oeste 0 -- -- 67
2019-08-01 19:00:00 22.5 14 Noroeste 30 Noroeste 0 -- -- 66
2019-08-01 18:00:00 23.2 21 Noroeste 43 Noroeste 0 -- -- 63
2019-08-01 17:00:00 23.9 20 Noroeste 41 Noroeste 0 -- -- 61
2019-08-01 16:00:00 24.9 19 Noroeste 40 Noroeste 0 -- -- 58
2019-08-01 15:00:00 24.1 19 Oeste 31 Sudoeste 0 -- -- 60
2019-08-01 14:00:00 23 11 Sur 35 Oeste 0 -- -- 65
2019-08-01 13:00:00 23.9 19 Sudoeste 30 Oeste 0 -- -- 61
2019-08-01 12:00:00 23.4 16 Noroeste 31 Noroeste 0 -- -- 58
2019-08-01 11:00:00 22.5 19 Noroeste 31 Noroeste 0 -- -- 58
2019-08-01 10:00:00 22.1 10 Oeste 20 Oeste 0 -- -- 54
2019-08-01 09:00:00 19.9 13 Noroeste 23 Noroeste 0 -- -- 63
2019-08-01 08:00:00 18 14 Noroeste 22 Norte 0 -- -- 58
2019-08-01 07:00:00 16.4 9 Norte 12 Norte 0 -- -- 52
2019-08-01 06:00:00 15.2 5 Nordeste 9 Nordeste 0 -- -- 65
2019-08-01 05:00:00 16.1 6 Norte 13 Norte 0 -- -- 67
2019-08-01 04:00:00 15.9 4 Nordeste 10 Nordeste 0 -- -- 72
2019-08-01 03:00:00 16.2 4 Norte 9 Nordeste 0 -- -- 73
2019-08-01 02:00:00 16.7 4 Este 9 Nordeste 0 -- -- 70
2019-08-01 01:00:00 17.7 6 Este 13 Nordeste 0 -- -- 68
2019-08-01 00:00:00 18.1 10 Nordeste 13 Nordeste 0 -- -- 70
2019-07-31 23:00:00 18.9 5 Sudoeste 11 Sudoeste 0 -- -- 70
2019-07-31 22:00:00 19.9 5 Oeste 11 Oeste 0 -- -- 65
2019-07-31 21:00:00 20.8 5 Noroeste 17 Oeste 0 -- -- 62
2019-07-31 20:00:00 22.6 12 Oeste 20 Oeste 0 -- -- 57
2019-07-31 19:00:00 24.7 13 Oeste 21 Oeste 0 -- -- 50
2019-07-31 18:00:00 25.3 15 Oeste 24 Sudoeste 0 -- -- 49
2019-07-31 17:00:00 26.1 13 Oeste 28 Sudoeste 0 -- -- 47
2019-07-31 16:00:00 26.5 17 Oeste 30 Oeste 0 -- -- 46
2019-07-31 15:00:00 25.8 15 Oeste 29 Oeste 0 -- -- 49
2019-07-31 14:00:00 25.8 15 Oeste 41 Noroeste 0 -- -- 48
2019-07-31 13:00:00 25.1 15 Oeste 27 Oeste 0 -- -- 50
2019-07-31 12:00:00 24.2 12 Oeste 22 Oeste 0 -- -- 53
2019-07-31 11:00:00 22.5 10 Sudoeste 20 Oeste 0 -- -- 58
2019-07-31 10:00:00 20.7 7 Oeste 14 Sudoeste 0 -- -- 66
2019-07-31 09:00:00 19.2 4 Sudoeste 10 Este 0 -- -- 73
2019-07-31 08:00:00 15.6 4 Nordeste 10 Norte 0 -- -- 83
2019-07-31 07:00:00 16.2 4 Nordeste 14 Este 0 -- -- 83
2019-07-31 06:00:00 16.5 7 Este 13 Nordeste 0 -- -- 82
2019-07-31 05:00:00 16.5 6 Este 13 Este 0 -- -- 82
2019-07-31 04:00:00 17 6 Este 10 Norte 0 -- -- 79
2019-07-31 03:00:00 16.7 4 Norte 11 Norte 0 -- -- 79
2019-07-31 02:00:00 17.5 8 Norte 15 Norte 0 -- -- 76
2019-07-31 01:00:00 18 9 Norte 18 Noroeste 0 -- -- 74
2019-07-31 00:00:00 18.6 13 Noroeste 18 Noroeste 0 -- -- 72
2019-07-30 23:00:00 19.2 14 Noroeste 27 Noroeste 0 -- -- 70
2019-07-30 22:00:00 19.8 18 Noroeste 23 Noroeste 0 -- -- 67
2019-07-30 21:00:00 20.8 15 Noroeste 29 Noroeste 0 -- -- 64
2019-07-30 20:00:00 22.7 19 Noroeste 48 Noroeste 0 -- -- 58
2019-07-30 19:00:00 24.6 13 Noroeste 43 Norte 0 -- -- 54
2019-07-30 18:00:00 25.7 14 Noroeste 31 Oeste 0 -- -- 51
2019-07-30 17:00:00 26 21 Noroeste 31 Oeste 0 -- -- 51
2019-07-30 16:00:00 26.4 14 Oeste 24 Oeste 0 -- -- 51
2019-07-30 15:00:00 26.2 14 Oeste 32 Oeste 0 -- -- 51
2019-07-30 14:00:00 26 15 Oeste 31 Oeste 0 -- -- 52
2019-07-30 13:00:00 25.5 17 Oeste 31 Sudoeste 0 -- -- 56
2019-07-30 12:00:00 24.2 10 Sudoeste 35 Oeste 0 -- -- 61
2019-07-30 11:00:00 23.8 12 Oeste 27 Oeste 0 -- -- 62
2019-07-30 10:00:00 22.6 14 Oeste 24 Oeste 0 -- -- 66
2019-07-30 09:00:00 21.1 21 Noroeste 32 Noroeste 0 -- -- 69
2019-07-30 08:00:00 19.5 8 Norte 43 Noroeste 0 -- -- 72
2019-07-30 07:00:00 19.3 20 Noroeste 31 Noroeste 0 -- -- 73
2019-07-30 06:00:00 20 10 Oeste 32 Nordeste 0 -- -- 68
2019-07-30 05:00:00 19.8 16 Norte 41 Norte 0 -- -- 67
2019-07-30 04:00:00 19.7 14 Noroeste 29 Nordeste 0 -- -- 69
2019-07-30 03:00:00 19.4 14 Noroeste 23 Noroeste 0 -- -- 71
2019-07-30 02:00:00 19.3 13 Noroeste 21 Noroeste 0 -- -- 72
2019-07-30 01:00:00 19.6 13 Noroeste 22 Noroeste 0 -- -- 73
2019-07-30 00:00:00 19.9 9 Noroeste 23 Noroeste 0 -- -- 71
2019-07-29 23:00:00 20.1 12 Noroeste 27 Noroeste 0 -- -- 72
2019-07-29 22:00:00 20.5 14 Noroeste 23 Noroeste 0 -- -- 70
2019-07-29 21:00:00 21.5 13 Noroeste 25 Noroeste 0 -- -- 60
2019-07-29 20:00:00 23.4 13 Noroeste 31 Noroeste 0 -- -- 50
2019-07-29 19:00:00 24.5 22 Noroeste 35 Noroeste 0 -- -- 47
2019-07-29 18:00:00 27.6 21 Noroeste 39 Noroeste 0 -- -- 33
2019-07-29 17:00:00 28.8 15 Oeste 30 Oeste 0 -- -- 27
2019-07-29 16:00:00 28.2 14 Oeste 28 Oeste 0 -- -- 26
2019-07-29 15:00:00 28.3 11 Sudoeste 32 Oeste 0 -- -- 28
2019-07-29 14:00:00 28.1 12 Oeste 29 Noroeste 0 -- -- 34
2019-07-29 13:00:00 26.6 17 Noroeste 29 Noroeste 0 -- -- 44
2019-07-29 12:00:00 25.5 8 Sudoeste 20 Sudoeste 0 -- -- 51
2019-07-29 11:00:00 23.7 10 Oeste 23 Oeste 0 -- -- 57
2019-07-29 10:00:00 22.1 5 Sur 11 Sudoeste 0 -- -- 69
2019-07-29 09:00:00 20.6 6 Sur 9 Sur 0 -- -- 74
2019-07-29 08:00:00 17.8 3 Este 8 Sudeste 0 -- -- 85
2019-07-29 07:00:00 16.6 4 Nordeste 8 Nordeste 0 -- -- 85
2019-07-29 06:00:00 17.1 6 Nordeste 9 Nordeste 0 -- -- 85
2019-07-29 05:00:00 17.2 4 Este 6 Nordeste 0 -- -- 85
2019-07-29 04:00:00 18.1 3 Este 9 Este 0 -- -- 84
2019-07-29 03:00:00 18.3 8 Este 12 Este 0 -- -- 85
2019-07-29 02:00:00 18.4 4 Noroeste 8 Noroeste 0 -- -- 85
2019-07-29 01:00:00 18.7 2 Norte 9 Noroeste 0 -- -- 83
2019-07-29 00:00:00 19.3 5 Noroeste 9 Noroeste 0 -- -- 82
2019-07-28 23:00:00 19.9 0 Calma 17 Noroeste 0 -- -- 81
2019-07-28 22:00:00 20.6 7 Oeste 12 Oeste 0 -- -- 78
2019-07-28 21:00:00 22.1 4 Sur 12 Sur 0 -- -- 73
2019-07-28 20:00:00 24.1 4 Noroeste 12 Sudeste 0 -- -- 67
2019-07-28 19:00:00 24.8 9 Sudeste 18 Sudeste 0 -- -- 65
2019-07-28 18:00:00 25.7 10 Oeste 25 Oeste 0 -- -- 62
2019-07-28 17:00:00 27.4 16 Oeste 26 Oeste 0 -- -- 58
2019-07-28 16:00:00 27.9 15 Oeste 29 Oeste 0 -- -- 55
2019-07-28 15:00:00 27.5 20 Noroeste 33 Noroeste 0 -- -- 57
2019-07-28 14:00:00 27.7 24 Noroeste 38 Noroeste 0 -- -- 56
2019-07-28 13:00:00 28 15 Oeste 27 Oeste 0 -- -- 53
2019-07-28 12:00:00 25.4 17 Noroeste 31 Oeste 0 -- -- 64
2019-07-28 11:00:00 24.2 19 Noroeste 28 Oeste 0 -- -- 68
2019-07-28 10:00:00 23.3 17 Noroeste 29 Noroeste 0 -- -- 64
2019-07-28 09:00:00 22.5 15 Noroeste 21 Noroeste 0 -- -- 63
2019-07-28 08:00:00 20.7 8 Norte 21 Noroeste 0 -- -- 56
2019-07-28 07:00:00 19.6 15 Noroeste 20 Noroeste 0 -- -- 68
2019-07-28 06:00:00 19.5 6 Norte 19 Noroeste 0 -- -- 56
2019-07-28 05:00:00 19.3 10 Norte 13 Noroeste 0 -- -- 53
2019-07-28 04:00:00 19 8 Norte 25 Noroeste 0 -- -- 54
2019-07-28 03:00:00 18.6 4 Nordeste 18 Norte 0 -- -- 52
2019-07-28 02:00:00 19.2 15 Noroeste 21 Noroeste 0 -- -- 50
2019-07-28 01:00:00 18.3 8 Noroeste 13 Noroeste 0 -- -- 51
2019-07-28 00:00:00 18.4 4 Norte 19 Norte 0 -- -- 57
2019-07-27 23:00:00 19.7 13 Norte 19 Noroeste 0 -- -- 59
2019-07-27 22:00:00 19.7 2 Norte 19 Noroeste 0 -- -- 63
2019-07-26 11:00:00 -- -- -- -- -- -- -- -- --
2019-07-26 10:00:00 -- -- -- -- -- -- -- -- --
2019-07-26 09:00:00 21.6 9 Noroeste 12 Noroeste 0 -- -- 62
2019-07-26 08:00:00 20.3 6 Norte 12 Norte 0 -- -- 31
2019-07-26 07:00:00 19.3 9 Norte 17 Norte 0 -- -- 44
2019-07-26 06:00:00 18.9 5 Noroeste 10 Norte 0 -- -- 48
2019-07-26 05:00:00 19.5 5 Este 13 Norte 0 -- -- 50
2019-07-26 04:00:00 19.5 5 Noroeste 14 Nordeste 0 -- -- 50
2019-07-26 03:00:00 20.1 5 Nordeste 17 Noroeste 0 -- -- 45
2019-07-26 02:00:00 21.3 14 Noroeste 22 Noroeste 0 -- -- 51
2019-07-26 01:00:00 21.7 9 Noroeste 24 Noroeste 0 -- -- 43
2019-07-26 00:00:00 22.1 15 Noroeste 24 Noroeste 0 -- -- 44
2019-07-25 23:00:00 22.6 12 Norte 19 Noroeste 0 -- -- 40
2019-07-25 22:00:00 22.2 9 Noroeste 14 Noroeste 0 -- -- 48
2019-07-25 21:00:00 22.6 8 Norte 23 Noroeste 0 -- -- 51
2019-07-25 20:00:00 22.5 14 Noroeste 26 Noroeste 0 -- -- 66
2019-07-25 19:00:00 24.1 13 Oeste 25 Oeste 0 -- -- 60
2019-07-25 18:00:00 25.8 15 Oeste 22 Oeste 0 -- -- 55
2019-07-25 17:00:00 24.7 9 Sur 21 Sur 0 -- -- 56
2019-07-25 16:00:00 27.3 8 Sur 16 Sur 0 -- -- 48
2019-07-25 15:00:00 25.5 8 Sudoeste 23 Sur 0 -- -- 52
2019-07-25 14:00:00 27.8 14 Sur 22 Sur 0 -- -- 36
2019-07-25 13:00:00 26.7 12 Sur 19 Sur 0 -- -- 42
2019-07-25 12:00:00 26.7 11 Sur 17 Sudeste 0 -- -- 35
2019-07-25 11:00:00 27.3 9 Sur 17 Sur 0 -- -- 28
2019-07-25 10:00:00 25.5 6 Sur 14 Oeste 0 -- -- 33
2019-07-25 09:00:00 24 10 Oeste 15 Noroeste 0 -- -- 31
2019-07-25 08:00:00 20.9 9 Norte 12 Norte 0 -- -- 26
2019-07-25 07:00:00 20 8 Norte 17 Nordeste 0 -- -- 27
2019-07-25 06:00:00 20.1 15 Nordeste 22 Nordeste 0 -- -- 24
2019-07-25 05:00:00 21.1 13 Norte 19 Noroeste 0 -- -- 29
2019-07-25 04:00:00 21.2 14 Norte 18 Norte 0 -- -- 33
2019-07-25 03:00:00 21.1 12 Norte 20 Norte 0 -- -- 36
2019-07-25 02:00:00 19.7 8 Noroeste 11 Noroeste 0 -- -- 48
2019-07-25 01:00:00 19.2 6 Nordeste 25 Noroeste 0 -- -- 50
2019-07-25 00:00:00 19.9 16 Noroeste 25 Noroeste 0 -- -- 65
2019-07-24 23:00:00 21.5 17 Noroeste 26 Noroeste 0 -- -- 53
2019-07-24 22:00:00 23.6 12 Noroeste 19 Noroeste 0 -- -- 44
2019-07-24 21:00:00 24.8 2 Noroeste 11 Noroeste 0 -- -- 47
2019-07-24 20:00:00 26.4 10 Noroeste 14 Oeste 0 -- -- 45
2019-07-24 19:00:00 27.5 11 Oeste 17 Oeste 0 -- -- 47
2019-07-24 18:00:00 27.6 11 Oeste 17 Oeste 0 -- -- 48
2019-07-24 17:00:00 27.8 10 Sudoeste 15 Sudoeste 0 -- -- 49
2019-07-24 16:00:00 26.9 7 Sudoeste 16 Sudoeste 0 -- -- 53
2019-07-24 15:00:00 26.4 6 Sudoeste 16 Sur 0 -- -- 54
2019-07-24 14:00:00 24.2 9 Sur 20 Sur 0 -- -- 61
2019-07-24 13:00:00 24.2 11 Sur 18 Sur 0 -- -- 61
2019-07-24 12:00:00 25.1 8 Sur 15 Sudoeste 0 -- -- 57
2019-07-24 11:00:00 24.1 8 Sur 13 Sur 0 -- -- 60
2019-07-24 10:00:00 24.4 7 Sudoeste 14 Sur 0 -- -- 52
2019-07-24 09:00:00 25.3 7 Sudeste 17 Noroeste 0 -- -- 42
2019-07-24 08:00:00 20.5 11 Noroeste 16 Noroeste 0 -- -- 42
2019-07-24 07:00:00 22.8 6 Sudeste 22 Este 0 -- -- 24
2019-07-24 06:00:00 19.5 3 Norte 14 Nordeste 0 -- -- 34
2019-07-24 05:00:00 20.1 4 Este 21 Noroeste 0 -- -- 28
2019-07-24 04:00:00 19.8 2 Este 16 Noroeste 0 -- -- 30
2019-07-24 03:00:00 19 5 Norte 28 Noroeste 0 -- -- 37
2019-07-24 02:00:00 20 19 Noroeste 33 Noroeste 0 -- -- 55
2019-07-24 01:00:00 20.6 6 Norte 13 Norte 0 -- -- 27
2019-07-24 00:00:00 21.4 8 Norte 18 Noroeste 0 -- -- 28
2019-07-23 23:00:00 22 9 Noroeste 14 Noroeste 0 -- -- 34
2019-07-23 22:00:00 22.6 13 Noroeste 18 Noroeste 0 -- -- 36
2019-07-23 21:00:00 23.3 7 Norte 14 Noroeste 0 -- -- 43
2019-07-23 20:00:00 23.7 15 Noroeste 28 Noroeste 0 -- -- 47
2019-07-23 19:00:00 26.3 12 Oeste 25 Noroeste 0 -- -- 44
2019-07-23 18:00:00 26 18 Noroeste 30 Oeste 0 -- -- 46
2019-07-23 17:00:00 26.7 18 Noroeste 31 Oeste 0 -- -- 46
2019-07-23 16:00:00 26.7 22 Oeste 31 Oeste 0 -- -- 45
2019-07-23 15:00:00 26.5 17 Oeste 31 Noroeste 0 -- -- 46
2019-07-23 14:00:00 25.1 17 Oeste 26 Oeste 0 -- -- 54
2019-07-23 13:00:00 24.3 10 Sudoeste 24 Oeste 0 -- -- 56
2019-07-23 12:00:00 24.6 16 Oeste 27 Oeste 0 -- -- 53
2019-07-23 11:00:00 25.5 11 Oeste 17 Oeste 0 -- -- 39
2019-07-23 10:00:00 23.4 10 Oeste 17 Oeste 0 -- -- 48
2019-07-23 09:00:00 21.8 5 Oeste 8 Noroeste 0 -- -- 49
2019-07-23 08:00:00 18.8 3 Noroeste 12 Norte 0 -- -- 50
2019-07-23 07:00:00 15.9 4 Este 10 Norte 0 -- -- 63
2019-07-23 06:00:00 15.9 4 Nordeste 12 Nordeste 0 -- -- 62
2019-07-23 05:00:00 15.8 4 Este 8 Noroeste 0 -- -- 62
2019-07-23 04:00:00 16.5 3 Norte 10 Norte 0 -- -- 64
2019-07-23 03:00:00 16.4 6 Nordeste 12 Norte 0 -- -- 57
2019-07-23 02:00:00 17.8 8 Norte 11 Noroeste 0 -- -- 57
2019-07-23 01:00:00 17.6 3 Noroeste 10 Noroeste 0 -- -- 47
2019-07-23 00:00:00 19.2 6 Noroeste 14 Norte 0 -- -- 61
2019-07-22 23:00:00 18.5 3 Sudeste 6 Noroeste 0 -- -- 74
2019-07-22 22:00:00 19.7 3 Norte 12 Noroeste 0 -- -- 74
2019-07-22 21:00:00 19.4 11 Noroeste 21 Noroeste 0 -- -- 77
2019-07-22 20:00:00 21.1 17 Noroeste 22 Norte 0 -- -- 70
2019-07-22 19:00:00 23.2 16 Oeste 25 Oeste 0 -- -- 63
2019-07-22 18:00:00 24.6 14 Oeste 26 Oeste 0 -- -- 58
2019-07-22 17:00:00 25.2 13 Oeste 27 Oeste 0 -- -- 57
2019-07-22 16:00:00 25.4 15 Oeste 27 Oeste 0 -- -- 57
2019-07-22 15:00:00 25 14 Oeste 29 Noroeste 0 -- -- 58
2019-07-22 14:00:00 24.5 18 Oeste 30 Oeste 0 -- -- 59
2019-07-22 13:00:00 24 15 Oeste 30 Oeste 0 -- -- 59
2019-07-22 12:00:00 23.8 18 Oeste 31 Norte 0 -- -- 60
2019-07-22 11:00:00 22.8 -- -- 22 Nordeste 0 -- -- 63
2019-07-22 10:00:00 21.2 -- -- 23 Nordeste 0 -- -- 67
2019-07-22 09:00:00 19.9 -- -- -- -- -- -- -- 72
2019-07-22 08:00:00 -- -- -- -- -- -- -- -- --
2019-07-22 07:00:00 -- -- -- -- -- -- -- -- --
2019-07-22 06:00:00 -- -- -- -- -- -- -- -- --
2019-07-22 05:00:00 -- -- -- -- -- -- -- -- --
2019-07-22 04:00:00 -- -- -- -- -- -- -- -- --
2019-07-22 03:00:00 -- -- -- -- -- -- -- -- --
2019-07-22 02:00:00 -- -- -- -- -- -- -- -- --
2019-07-22 01:00:00 -- -- -- -- -- -- -- -- --
2019-07-22 00:00:00 -- -- -- -- -- -- -- -- --
2019-07-21 23:00:00 -- -- -- -- -- -- -- -- --
2019-07-21 22:00:00 -- -- -- -- -- -- -- -- --
2019-07-21 21:00:00 -- -- -- -- -- -- -- -- --
2019-07-21 20:00:00 20.7 -- -- 17 Norte 0 -- -- 76
2019-07-21 19:00:00 21 -- -- 24 Nordeste 0 -- -- 75
2019-07-21 18:00:00 21.9 -- -- 27 Nordeste 0 -- -- 71
2019-07-21 17:00:00 22.3 -- -- 29 Este 0 -- -- 71
2019-07-21 16:00:00 22.9 -- -- 30 Este 0 -- -- 68
2019-07-21 15:00:00 23.1 -- -- 31 Este 0 -- -- 67
2019-07-21 14:00:00 23.2 -- -- 30 Este 0 -- -- 66
2019-07-21 13:00:00 22.6 -- -- 28 Este 0 -- -- 68
2019-07-21 12:00:00 22.6 -- -- 26 Nordeste 0 -- -- 67
2019-07-21 11:00:00 22 -- -- 24 Nordeste 0 -- -- 69
2019-07-21 10:00:00 21.5 -- -- 19 Nordeste 0 -- -- 71
2019-07-21 09:00:00 19.6 -- -- -- -- -- -- -- 76
2019-07-21 08:00:00 -- -- -- -- -- -- -- -- --
2019-07-21 07:00:00 -- -- -- -- -- -- -- -- --
2019-07-21 06:00:00 -- -- -- -- -- -- -- -- --
2019-07-21 05:00:00 -- -- -- -- -- -- -- -- --
2019-07-21 04:00:00 -- -- -- -- -- -- -- -- --
2019-07-21 03:00:00 -- -- -- -- -- -- -- -- --
2019-07-21 02:00:00 -- -- -- -- -- -- -- -- --
2019-07-21 01:00:00 -- -- -- -- -- -- -- -- --
2019-07-21 00:00:00 -- -- -- -- -- -- -- -- --